Time;durP1;ratioP1;P1;durP2;ratioP2;P2;SDS_P1;SDS_P2;PMS_P1;PMS_P2;Temp;Humidity;BMP_temperature;BMP_pressure;BME280_temperature;BME280_humidity;BME280_pressure;Samples;Min_cycle;Max_cycle;Signal;HPM_P1;HPM_P2
2021/11/10 00:21:04;;;;;;;3.85;3.35;;;2.10;99.90;;;;;;7373796;19;20499;-83
2021/11/10 00:24:04;;;;;;;3.88;3.50;;;2.00;99.90;;;;;;7258173;19;2004394;-79
2021/11/10 00:27:10;;;;;;;4.10;3.58;;;2.00;99.90;;;;;;7231101;19;2004409;-81
2021/11/10 00:30:31;;;;;;;4.13;3.63;;;2.00;99.90;;;;;;7232649;19;2004455;-82
2021/11/10 00:33:28;;;;;;;4.20;3.70;;;2.00;99.90;;;;;;7219198;19;2004071;-81
2021/11/10 00:36:13;;;;;;;4.43;3.08;;;2.00;99.90;;;;;;7301985;19;2004422;-81
2021/11/10 00:39:17;;;;;;;3.63;3.33;;;2.10;99.90;;;;;;7424606;19;20348;-80
2021/11/10 00:41:57;;;;;;;3.47;3.17;;;2.00;99.90;;;;;;7422737;19;20335;-80
2021/11/10 00:45:09;;;;;;;3.58;3.28;;;2.00;99.90;;;;;;7333524;19;20289;-83
2021/11/10 00:48:14;;;;;;;4.60;3.53;;;2.10;99.90;;;;;;7220309;19;2003467;-80
2021/11/10 00:51:15;;;;;;;4.25;3.85;;;2.00;99.90;;;;;;7423881;19;20363;-80
2021/11/10 00:53:51;;;;;;;4.00;3.58;;;2.00;99.90;;;;;;7197300;19;2004413;-81
2021/11/10 00:57:04;;;;;;;3.65;3.33;;;2.00;99.90;;;;;;7317215;19;20327;-80
2021/11/10 01:00:04;;;;;;;3.40;3.10;;;2.00;99.90;;;;;;7324410;19;20343;-81
2021/11/10 01:02:44;;;;;;;3.97;3.55;;;2.00;99.90;;;;;;7312809;19;20327;-82
2021/11/10 01:05:40;;;;;;;3.92;3.60;;;1.90;99.90;;;;;;7268465;19;2004367;-81
2021/11/10 01:08:55;;;;;;;4.63;3.90;;;2.00;99.90;;;;;;7229334;19;2004429;-81
2021/11/10 01:12:00;;;;;;;3.63;3.33;;;1.80;99.90;;;;;;7337833;19;21085;-80
2021/11/10 01:14:46;;;;;;;3.97;3.63;;;1.80;99.90;;;;;;7294117;19;20328;-83
2021/11/10 01:18:08;;;;;;;5.77;4.00;;;1.90;99.90;;;;;;7334635;19;20337;-81
2021/11/10 01:21:13;;;;;;;4.10;3.70;;;1.80;99.90;;;;;;7218702;19;2004238;-82
2021/11/10 01:23:51;;;;;;;3.83;3.50;;;1.80;99.90;;;;;;7075581;19;2004588;-80
2021/11/10 01:26:30;;;;;;;3.88;3.42;;;1.80;99.90;;;;;;7293242;19;20336;-81
2021/11/10 01:29:33;;;;;;;3.55;3.25;;;1.80;99.90;;;;;;7329050;19;20439;-81
2021/11/10 01:32:18;;;;;;;3.45;3.15;;;1.70;99.90;;;;;;7227720;19;2004331;-81
2021/11/10 01:35:00;;;;;;;4.45;3.75;;;1.70;99.90;;;;;;7355758;19;20336;-80
2021/11/10 01:37:31;;;;;;;5.03;3.92;;;1.80;99.90;;;;;;7209429;19;2004479;-80
2021/11/10 01:40:19;;;;;;;5.00;3.47;;;1.70;99.90;;;;;;7341057;19;20333;-82
2021/11/10 01:43:18;;;;;;;3.97;3.55;;;1.60;99.90;;;;;;7324486;19;20373;-82
2021/11/10 01:48:57;;;;;;;4.13;3.72;;;1.70;99.90;;;;;;7418106;19;20346;-83
2021/11/10 01:51:24;;;;;;;3.72;3.42;;;1.80;99.90;;;;;;7419504;19;20327;-80
2021/11/10 01:54:18;;;;;;;3.67;3.38;;;1.70;99.90;;;;;;7387443;19;20358;-82
2021/11/10 01:56:51;;;;;;;3.75;2.78;;;1.60;99.90;;;;;;7232122;19;2004334;-81
2021/11/10 01:59:44;;;;;;;2.70;2.50;;;1.60;99.90;;;;;;7337264;19;20340;-82
2021/11/10 02:02:26;;;;;;;2.45;2.30;;;1.30;99.90;;;;;;7315524;19;20624;-82
2021/11/10 02:05:20;;;;;;;3.28;2.92;;;1.30;99.90;;;;;;7263119;19;2004433;-82
2021/11/10 02:08:05;;;;;;;2.85;2.65;;;1.40;99.90;;;;;;7329633;19;20313;-80
2021/11/10 02:10:51;;;;;;;3.10;2.80;;;1.30;99.90;;;;;;7319004;19;20352;-85
2021/11/10 02:13:29;;;;;;;3.10;2.80;;;1.40;99.90;;;;;;7217730;19;2004450;-82
2021/11/10 02:16:02;;;;;;;3.40;2.63;;;1.40;99.90;;;;;;7217934;19;2004314;-81
2021/11/10 02:18:58;;;;;;;2.77;2.57;;;1.30;99.90;;;;;;7231823;19;2004414;-83
2021/11/10 02:21:46;;;;;;;3.80;2.90;;;1.30;99.90;;;;;;7201866;19;2004439;-81
2021/11/10 02:24:34;;;;;;;3.70;3.38;;;1.30;99.90;;;;;;7291076;19;20356;-83
2021/11/10 02:33:12;;;;;;;4.28;3.88;;;1.30;99.90;;;;;;7187017;19;2004376;-81
2021/11/10 02:35:58;;;;;;;3.70;3.40;;;1.20;99.90;;;;;;7311796;19;20444;-82
2021/11/10 02:41:32;;;;;;;3.85;3.45;;;1.20;99.90;;;;;;7215505;19;2004592;-78
2021/11/10 02:47:31;;;;;;;3.83;3.53;;;1.10;99.90;;;;;;7264685;19;2004462;-79
2021/11/10 02:50:30;;;;;;;4.10;3.70;;;1.10;99.90;;;;;;7365030;19;20370;-81
2021/11/10 02:53:12;;;;;;;4.20;3.80;;;1.00;99.90;;;;;;7255673;19;2004518;-83
2021/11/10 02:55:55;;;;;;;4.28;3.92;;;1.00;99.90;;;;;;7310345;19;20321;-81
2021/11/10 02:58:55;;;;;;;5.10;3.97;;;0.90;99.90;;;;;;7210452;19;2004505;-82
2021/11/10 03:02:04;;;;;;;5.47;4.10;;;0.80;99.90;;;;;;7270615;19;20320;-80
2021/11/10 03:04:59;;;;;;;4.18;3.60;;;0.90;99.90;;;;;;7223262;19;2004392;-83
2021/11/10 03:08:05;;;;;;;5.30;4.30;;;0.90;99.90;;;;;;7201431;19;2004437;-81
2021/11/10 03:11:02;;;;;;;4.63;4.20;;;1.00;99.90;;;;;;7206219;19;2004547;-79
2021/11/10 03:14:14;;;;;;;6.57;4.40;;;0.80;99.90;;;;;;7348152;19;20353;-80
2021/11/10 03:27:55;;;;;;;6.07;4.20;;;0.70;99.90;;;;;;7166220;19;2004554;-80
2021/11/10 03:30:29;;;;;;;6.77;4.37;;;0.70;99.90;;;;;;7368881;19;20400;-82
2021/11/10 03:33:03;;;;;;;4.45;4.05;;;0.60;99.90;;;;;;7370796;19;20353;-80
2021/11/10 03:35:36;;;;;;;5.68;4.50;;;0.70;99.90;;;;;;7391897;19;20341;-80
2021/11/10 03:38:19;;;;;;;5.75;4.40;;;0.60;99.90;;;;;;7321366;19;20894;-80
2021/11/10 03:40:59;;;;;;;5.32;4.38;;;0.60;99.90;;;;;;7235782;19;2004418;-80
2021/11/10 03:43:36;;;;;;;5.10;4.33;;;0.60;99.90;;;;;;7320836;19;20449;-80
2021/11/10 03:46:09;;;;;;;5.53;4.47;;;0.60;99.90;;;;;;7397839;19;20372;-81
2021/11/10 03:48:59;;;;;;;4.90;4.28;;;0.50;99.90;;;;;;7340369;19;20316;-80
2021/11/10 03:51:50;;;;;;;5.18;4.18;;;0.50;99.90;;;;;;7350567;19;20300;-81
2021/11/10 03:55:09;;;;;;;5.87;4.50;;;0.50;99.90;;;;;;7248718;19;2004440;-79
2021/11/10 03:58:13;;;;;;;4.33;3.93;;;0.50;99.90;;;;;;7365446;19;20316;-81
2021/11/10 04:00:55;;;;;;;4.57;4.03;;;0.40;99.90;;;;;;7172672;19;2004448;-80
2021/11/10 04:03:43;;;;;;;4.80;3.83;;;0.50;99.90;;;;;;7348625;19;20392;-79
2021/11/10 04:06:42;;;;;;;5.25;4.43;;;0.40;99.90;;;;;;7214764;19;2004425;-79
2021/11/10 04:09:20;;;;;;;4.65;4.10;;;0.60;99.90;;;;;;7315807;19;20320;-79
2021/11/10 04:12:25;;;;;;;5.15;4.15;;;0.40;99.90;;;;;;7394723;19;20381;-80
2021/11/10 04:15:50;;;;;;;5.50;4.13;;;0.30;99.90;;;;;;7371060;19;20325;-80
2021/11/10 04:18:39;;;;;;;6.85;4.28;;;0.30;99.90;;;;;;7222210;19;2004475;-79
2021/11/10 04:21:41;;;;;;;4.87;4.30;;;0.30;99.90;;;;;;7256598;19;2004452;-80
2021/11/10 04:24:44;;;;;;;4.43;4.03;;;0.30;99.90;;;;;;7373213;19;20325;-77
2021/11/10 04:27:32;;;;;;;4.82;4.30;;;0.30;99.90;;;;;;7248013;19;2004319;-80
2021/11/10 04:30:13;;;;;;;4.90;4.40;;;0.40;99.90;;;;;;7242828;19;2004698;-79
2021/11/10 04:32:59;;;;;;;4.95;4.40;;;0.20;99.90;;;;;;7326142;19;20396;-79
2021/11/10 04:36:25;;;;;;;4.75;4.25;;;0.10;99.90;;;;;;7259053;19;20349;-81
2021/11/10 04:39:40;;;;;;;6.65;4.18;;;0.20;99.90;;;;;;7237243;19;2004586;-80
2021/11/10 04:42:47;;;;;;;4.80;4.13;;;0.10;99.90;;;;;;7384526;19;20331;-79
2021/11/10 04:46:05;;;;;;;4.93;4.07;;;0.10;99.90;;;;;;7203092;19;2004350;-80
2021/11/10 04:49:09;;;;;;;4.32;3.92;;;0.10;99.90;;;;;;7249334;19;2004318;-80
2021/11/10 04:52:04;;;;;;;5.75;4.53;;;0.10;99.90;;;;;;7338657;19;20419;-80
2021/11/10 04:54:35;;;;;;;4.83;3.70;;;0.10;99.90;;;;;;7365510;19;20419;-81
2021/11/10 04:57:25;;;;;;;5.77;4.43;;;0.00;99.90;;;;;;7292506;19;20395;-78
2021/11/10 04:59:57;;;;;;;4.75;4.00;;;0.00;99.90;;;;;;7362562;19;20313;-80
2021/11/10 05:02:26;;;;;;;4.38;3.97;;;0.00;99.90;;;;;;7305590;19;20346;-79
2021/11/10 05:04:57;;;;;;;4.47;4.07;;;0.10;99.90;;;;;;7318937;19;20302;-81
2021/11/10 05:07:32;;;;;;;4.13;3.67;;;0.00;99.90;;;;;;7395920;19;20346;-80
2021/11/10 05:10:22;;;;;;;5.10;4.00;;;0.00;99.90;;;;;;7392852;19;20321;-79
2021/11/10 05:13:16;;;;;;;4.95;3.50;;;0.00;99.90;;;;;;7192137;19;2004426;-79
2021/11/10 05:16:11;;;;;;;4.05;3.42;;;-0.20;99.90;;;;;;7249568;19;2004270;-78
2021/11/10 05:19:11;;;;;;;5.47;4.30;;;0.00;99.90;;;;;;7325932;19;20332;-79
2021/11/10 05:22:20;;;;;;;6.05;4.70;;;-0.10;99.90;;;;;;7360290;19;20343;-80
2021/11/10 05:25:06;;;;;;;4.22;3.83;;;-0.10;99.90;;;;;;7376905;19;20344;-79
2021/11/10 05:28:11;;;;;;;4.35;3.58;;;-0.10;99.90;;;;;;7196365;19;2004120;-80
2021/11/10 05:30:51;;;;;;;3.92;3.60;;;-0.30;99.90;;;;;;7109240;19;2004365;-80
2021/11/10 05:33:49;;;;;;;4.00;3.60;;;-0.20;99.90;;;;;;7348055;19;20340;-80
2021/11/10 05:36:44;;;;;;;4.38;3.75;;;-0.10;99.90;;;;;;7191541;19;2004439;-80
2021/11/10 05:39:17;;;;;;;5.63;4.90;;;-0.20;99.90;;;;;;7363434;19;20344;-80
2021/11/10 05:41:53;;;;;;;5.05;4.28;;;-0.20;99.90;;;;;;7227326;19;2004609;-78
2021/11/10 05:44:48;;;;;;;5.72;4.47;;;-0.30;99.90;;;;;;7214609;19;2004580;-78
2021/11/10 05:47:29;;;;;;;4.95;3.83;;;-0.30;99.90;;;;;;7303221;19;20337;-80
2021/11/10 05:50:27;;;;;;;5.38;3.92;;;-0.40;99.90;;;;;;7339960;19;20339;-80
2021/11/10 05:53:26;;;;;;;5.03;3.80;;;-0.20;99.90;;;;;;7127156;19;2004393;-80
2021/11/10 05:56:19;;;;;;;5.13;4.63;;;-0.30;99.90;;;;;;7224325;19;2005135;-79
2021/11/10 05:58:51;;;;;;;6.38;5.65;;;-0.30;99.90;;;;;;7372149;19;20312;-80
2021/11/10 06:01:19;;;;;;;8.90;7.30;;;-0.50;99.90;;;;;;7374978;19;20313;-80
2021/11/10 06:03:45;;;;;;;6.15;5.00;;;-0.40;99.90;;;;;;7393282;19;20327;-81
2021/11/10 06:06:11;;;;;;;5.88;4.30;;;-0.30;99.90;;;;;;7392644;19;20363;-77
2021/11/10 06:08:37;;;;;;;6.10;4.93;;;-0.40;99.90;;;;;;7396114;19;20333;-79
2021/11/10 06:11:04;;;;;;;4.50;4.10;;;-0.30;99.90;;;;;;7392919;19;20894;-80
2021/11/10 06:13:30;;;;;;;4.93;4.32;;;-0.40;99.90;;;;;;7394042;19;20308;-80
2021/11/10 06:15:56;;;;;;;4.50;4.10;;;-0.40;99.90;;;;;;7395674;19;20316;-80
2021/11/10 06:18:21;;;;;;;4.30;3.90;;;-0.40;99.90;;;;;;7394246;19;20324;-80
2021/11/10 06:20:47;;;;;;;4.15;3.75;;;-0.30;99.90;;;;;;7394434;19;20328;-79
2021/11/10 06:23:13;;;;;;;5.20;4.07;;;-0.40;99.90;;;;;;7398187;19;20325;-81
2021/11/10 06:25:39;;;;;;;4.45;4.05;;;-0.30;99.90;;;;;;7397096;19;20701;-82
2021/11/10 06:28:29;;;;;;;4.32;3.92;;;-0.30;99.90;;;;;;7335739;19;20340;-80
2021/11/10 06:31:15;;;;;;;4.35;3.63;;;-0.30;99.90;;;;;;7377888;19;20767;-78
2021/11/10 06:36:24;;;;;;;5.00;4.50;;;-0.30;99.90;;;;;;7395356;19;20325;-81
2021/11/10 06:38:50;;;;;;;6.45;5.60;;;-0.30;99.90;;;;;;7392779;19;20874;-80
2021/11/10 06:41:19;;;;;;;6.63;4.15;;;-0.50;99.90;;;;;;7391608;19;20318;-80
2021/11/10 06:43:48;;;;;;;4.72;4.15;;;-0.40;99.90;;;;;;7391472;19;20398;-79
2021/11/10 06:56:53;;;;;;;4.07;3.40;;;-0.20;99.90;;;;;;7419069;19;20404;-82
2021/11/10 06:59:45;;;;;;;4.37;3.37;;;-0.20;99.90;;;;;;7252959;19;2004465;-82
2021/11/10 07:21:46;;;;;;;4.20;3.80;;;0.00;99.90;;;;;;7374525;19;20334;-79
2021/11/10 07:24:16;;;;;;;4.60;3.50;;;0.00;99.90;;;;;;7385875;19;20342;-81
2021/11/10 07:26:42;;;;;;;5.78;3.80;;;0.10;99.90;;;;;;7407304;19;20325;-81
2021/11/10 07:29:11;;;;;;;4.80;3.67;;;0.10;99.90;;;;;;7381007;19;20378;-84
2021/11/10 07:31:45;;;;;;;4.40;4.05;;;0.10;99.90;;;;;;7365481;19;20355;-83
2021/11/10 07:34:19;;;;;;;5.47;3.80;;;0.20;99.90;;;;;;7396368;19;20317;-81
2021/11/10 07:36:51;;;;;;;4.47;3.97;;;0.30;99.90;;;;;;7275368;19;2004289;-81
2021/11/10 07:39:18;;;;;;;4.35;3.80;;;0.30;99.90;;;;;;7363760;19;20356;-83
2021/11/10 07:41:47;;;;;;;4.70;3.80;;;0.30;99.90;;;;;;7394070;19;20353;-81
2021/11/10 07:44:15;;;;;;;4.60;4.20;;;0.30;99.90;;;;;;7413835;19;20357;-83
2021/11/10 07:46:51;;;;;;;4.40;4.00;;;0.40;99.90;;;;;;7418183;19;20297;-84
2021/11/10 07:49:21;;;;;;;4.53;4.13;;;0.40;99.90;;;;;;7419523;19;20316;-83
2021/11/10 07:51:48;;;;;;;4.25;3.85;;;0.50;99.90;;;;;;7415764;19;20336;-82
2021/11/10 07:54:14;;;;;;;5.15;4.07;;;0.50;99.90;;;;;;7419612;19;20345;-83
2021/11/10 07:56:41;;;;;;;7.10;4.40;;;0.60;99.90;;;;;;7418136;19;20346;-83
2021/11/10 07:59:07;;;;;;;6.18;4.60;;;0.70;99.90;;;;;;7415321;19;20345;-82
2021/11/10 08:01:33;;;;;;;5.07;4.30;;;0.90;99.90;;;;;;7404640;19;20345;-81
2021/11/10 08:04:03;;;;;;;7.07;4.68;;;1.10;99.90;;;;;;7395311;19;20301;-84
2021/11/10 08:06:37;;;;;;;4.93;4.47;;;1.30;99.90;;;;;;7393739;19;20766;-82
2021/11/10 08:09:08;;;;;;;6.07;5.22;;;1.40;99.90;;;;;;7301648;19;20316;-85
2021/11/10 08:11:37;;;;;;;5.60;5.00;;;1.70;99.90;;;;;;7387819;19;20788;-80
2021/11/10 08:20:16;;;;;;;6.00;4.82;;;2.50;99.90;;;;;;7373088;19;20332;-80
2021/11/10 08:22:42;;;;;;;5.32;4.28;;;2.80;99.90;;;;;;7367237;19;20427;-81
2021/11/10 08:43:14;;;;;;;5.28;4.78;;;3.70;99.90;;;;;;7364247;19;20403;-78
2021/11/10 08:46:01;;;;;;;9.37;6.20;;;3.90;99.90;;;;;;7391307;19;20353;-81
2021/11/10 08:49:12;;;;;;;6.32;5.50;;;3.90;99.90;;;;;;7401512;19;20348;-79
2021/11/10 10:18:11;;;;;;;6.25;5.60;;;7.10;99.90;;;;;;7366050;19;20332;-82
2021/11/10 10:20:55;;;;;;;6.07;5.47;;;7.30;99.90;;;;;;7180132;19;2004430;-82
2021/11/10 11:54:40;;;;;;;5.43;4.93;;;10.20;99.90;;;;;;7363816;19;20401;-83
2021/11/10 13:23:20;;;;;;;4.65;4.25;;;10.60;99.90;;;;;;7404835;19;20364;-83
2021/11/10 13:25:48;;;;;;;7.32;5.40;;;10.70;99.90;;;;;;7366040;19;20312;-83
2021/11/10 13:28:18;;;;;;;6.30;4.88;;;10.80;99.90;;;;;;7374815;19;20333;-81
2021/11/10 13:30:49;;;;;;;6.18;5.57;;;10.90;99.90;;;;;;7360009;19;20313;-82
2021/11/10 13:33:32;;;;;;;5.68;5.05;;;10.70;99.90;;;;;;7347807;19;20868;-82
2021/11/10 13:36:05;;;;;;;5.55;5.05;;;10.70;99.90;;;;;;7263361;19;2027470;-81
2021/11/10 13:38:45;;;;;;;5.38;4.50;;;10.60;99.90;;;;;;7372924;19;20330;-82
2021/11/10 13:41:30;;;;;;;3.92;3.63;;;10.50;99.90;;;;;;7270222;19;2004433;-81
2021/11/10 13:44:17;;;;;;;4.60;4.20;;;10.40;99.90;;;;;;7357855;19;20312;-81
2021/11/10 13:46:45;;;;;;;6.68;4.70;;;10.30;99.90;;;;;;7253166;19;2008389;-81
2021/11/10 13:49:13;;;;;;;4.77;4.33;;;10.20;99.90;;;;;;7376111;19;20305;-84
2021/11/10 13:52:03;;;;;;;5.10;4.60;;;10.10;99.90;;;;;;7365557;19;20855;-81
2021/11/10 13:54:38;;;;;;;4.93;4.35;;;10.00;99.90;;;;;;7241980;19;2004446;-81
2021/11/10 13:57:11;;;;;;;4.80;4.30;;;9.90;99.90;;;;;;7383524;19;20339;-81
2021/11/10 13:59:38;;;;;;;5.00;4.60;;;9.80;99.90;;;;;;7361276;19;20305;-81
2021/11/10 14:02:12;;;;;;;4.30;3.90;;;9.70;99.90;;;;;;7384370;19;20304;-81
2021/11/10 14:04:39;;;;;;;4.47;4.07;;;9.60;99.90;;;;;;7384171;19;20316;-81
2021/11/10 14:07:13;;;;;;;5.22;4.28;;;9.60;99.90;;;;;;7358662;19;20379;-81
2021/11/10 14:10:02;;;;;;;4.75;4.20;;;9.60;99.90;;;;;;7390131;19;20706;-82
2021/11/10 14:12:32;;;;;;;4.18;3.78;;;9.60;99.90;;;;;;7389283;19;20321;-82
2021/11/10 14:15:04;;;;;;;3.55;3.25;;;9.50;99.90;;;;;;7387841;19;20316;-81
2021/11/10 14:18:06;;;;;;;5.63;4.00;;;9.40;99.90;;;;;;7393883;19;20300;-82
2021/11/10 14:21:16;;;;;;;4.70;4.28;;;9.50;99.90;;;;;;7373272;19;20356;-82
2021/11/10 14:23:44;;;;;;;4.03;3.67;;;9.60;99.90;;;;;;7265469;19;2004444;-82
2021/11/10 15:25:55;;;;;;;3.40;3.00;;;8.00;99.90;;;;;;7427006;19;20374;-81
2021/11/10 15:32:34;;;;;;;3.80;3.40;;;7.80;99.90;;;;;;7403164;19;20361;-81
2021/11/10 15:39:51;;;;;;;4.40;4.00;;;7.60;99.90;;;;;;7349965;19;20839;-80
2021/11/10 15:43:17;;;;;;;4.40;3.63;;;7.40;99.90;;;;;;7394965;19;20841;-80
2021/11/10 15:52:11;;;;;;;4.50;3.80;;;7.10;99.90;;;;;;7375897;19;20855;-80
2021/11/10 15:54:38;;;;;;;4.25;3.60;;;7.10;99.90;;;;;;7390077;19;20440;-81
2021/11/10 15:57:04;;;;;;;4.20;3.85;;;6.90;99.90;;;;;;7389861;19;20866;-80
2021/11/10 15:59:30;;;;;;;4.05;3.65;;;6.80;99.90;;;;;;7387912;19;20352;-80
2021/11/10 16:01:57;;;;;;;4.07;3.67;;;6.70;99.90;;;;;;7386312;19;20328;-80
2021/11/10 16:04:39;;;;;;;3.85;3.55;;;6.60;99.90;;;;;;7387198;19;20875;-80
2021/11/10 16:07:20;;;;;;;4.40;3.95;;;6.60;99.90;;;;;;7262333;19;2006261;-80
2021/11/10 16:10:18;;;;;;;4.10;3.80;;;6.50;99.90;;;;;;7277267;19;2004475;-80
2021/11/10 16:13:39;;;;;;;4.55;4.15;;;6.30;99.90;;;;;;7391741;19;20324;-81
2021/11/10 16:17:06;;;;;;;6.78;4.70;;;6.30;99.90;;;;;;7092425;19;2004418;-80
2021/11/10 16:19:35;;;;;;;4.63;4.22;;;6.20;99.90;;;;;;7294704;19;20353;-80
2021/11/10 16:22:24;;;;;;;3.47;3.17;;;6.20;99.90;;;;;;7391732;19;20718;-80
2021/11/10 16:25:39;;;;;;;4.85;4.32;;;6.10;99.90;;;;;;7389009;19;20367;-80
2021/11/10 16:29:04;;;;;;;4.68;4.13;;;6.10;99.90;;;;;;7393267;19;20653;-80
2021/11/10 16:32:15;;;;;;;4.20;3.80;;;6.10;99.90;;;;;;7285047;19;2004452;-79
2021/11/10 16:34:52;;;;;;;4.57;4.28;;;5.90;99.90;;;;;;7394070;19;20805;-79
2021/11/10 16:37:44;;;;;;;4.40;4.00;;;5.90;99.90;;;;;;7388038;19;20319;-80
2021/11/10 16:40:34;;;;;;;5.72;3.60;;;5.80;99.90;;;;;;7246634;19;2004721;-79
2021/11/10 16:43:01;;;;;;;4.45;3.78;;;5.90;99.90;;;;;;7383497;19;20321;-79
2021/11/10 16:46:30;;;;;;;3.80;3.50;;;5.80;99.90;;;;;;7398161;19;20403;-80
2021/11/10 16:49:24;;;;;;;5.85;4.38;;;5.70;99.90;;;;;;7316800;19;20317;-80
2021/11/10 16:52:21;;;;;;;4.55;4.03;;;5.70;99.90;;;;;;7329613;19;20356;-79
2021/11/10 17:09:55;;;;;;;4.63;4.22;;;5.30;99.90;;;;;;7408572;19;20372;-80
2021/11/10 17:13:15;;;;;;;6.03;5.43;;;5.40;99.90;;;;;;7405730;19;20930;-80
2021/11/10 17:20:25;;;;;;;5.15;4.65;;;5.20;99.90;;;;;;7385769;19;20357;-79
2021/11/10 17:23:38;;;;;;;4.03;3.67;;;5.20;99.90;;;;;;7297268;19;2003632;-80
2021/11/10 17:26:50;;;;;;;4.20;3.90;;;5.10;99.90;;;;;;7253984;19;2004542;-79
2021/11/10 17:29:44;;;;;;;4.82;3.95;;;5.10;99.90;;;;;;7401958;19;20393;-79
2021/11/10 17:32:59;;;;;;;4.30;3.92;;;5.10;99.90;;;;;;7271632;19;20331;-81
2021/11/10 17:35:47;;;;;;;4.53;4.13;;;5.10;99.90;;;;;;7361864;19;20702;-80
2021/11/10 17:38:23;;;;;;;5.15;4.65;;;5.10;99.90;;;;;;7382948;19;20316;-79
2021/11/10 17:40:54;;;;;;;4.80;4.30;;;5.10;99.90;;;;;;7389112;19;20329;-79
2021/11/10 17:43:30;;;;;;;4.80;4.40;;;5.00;99.90;;;;;;7371466;19;20341;-79
2021/11/10 17:46:00;;;;;;;6.77;4.90;;;5.00;99.90;;;;;;7391903;19;20316;-79
2021/11/10 17:48:26;;;;;;;4.60;4.20;;;4.80;99.90;;;;;;7397684;19;20317;-80
2021/11/10 17:50:51;;;;;;;5.00;4.47;;;4.80;99.90;;;;;;7394420;19;20391;-79
2021/11/10 17:53:17;;;;;;;5.68;5.10;;;4.80;99.90;;;;;;7390446;19;20324;-78
2021/11/10 17:55:43;;;;;;;6.28;5.07;;;4.70;99.90;;;;;;7392070;19;20832;-80
2021/11/10 17:58:09;;;;;;;6.00;4.83;;;4.50;99.90;;;;;;7388655;19;20337;-79
2021/11/10 18:00:35;;;;;;;5.22;4.70;;;4.60;99.90;;;;;;7387845;19;20321;-79
2021/11/10 18:03:01;;;;;;;4.70;4.30;;;4.60;99.90;;;;;;7388970;19;20332;-78
2021/11/10 18:05:26;;;;;;;5.00;4.55;;;4.60;99.90;;;;;;7388435;19;20653;-79
2021/11/10 18:07:52;;;;;;;5.27;4.77;;;4.60;99.90;;;;;;7389311;19;20317;-79
2021/11/10 18:10:19;;;;;;;4.45;4.05;;;4.50;99.90;;;;;;7388783;19;20411;-79
2021/11/10 18:12:51;;;;;;;5.10;4.60;;;4.50;99.90;;;;;;7392732;19;20669;-79
2021/11/10 18:15:17;;;;;;;5.40;4.90;;;4.50;99.90;;;;;;7387293;19;20332;-79
2021/11/10 18:17:43;;;;;;;6.32;5.70;;;4.40;99.90;;;;;;7388997;19;20704;-80
2021/11/10 18:20:10;;;;;;;7.65;5.30;;;4.40;99.90;;;;;;7386952;19;20348;-79
2021/11/10 18:22:37;;;;;;;9.60;5.07;;;4.30;99.90;;;;;;7390230;19;20336;-80
2021/11/10 18:25:04;;;;;;;6.15;5.55;;;4.30;99.90;;;;;;7389450;19;20349;-79
2021/11/10 18:27:31;;;;;;;5.55;5.00;;;4.20;99.90;;;;;;7387453;19;20328;-79
2021/11/10 18:30:03;;;;;;;6.10;5.50;;;4.20;99.90;;;;;;7369244;19;20349;-81
2021/11/10 18:32:29;;;;;;;6.47;5.47;;;4.20;99.90;;;;;;7268009;19;2004426;-81
2021/11/10 18:34:56;;;;;;;6.47;5.83;;;4.10;99.90;;;;;;7386801;19;20352;-80
2021/11/10 18:37:22;;;;;;;7.95;6.75;;;4.20;99.90;;;;;;7364761;19;20354;-81
2021/11/10 18:39:50;;;;;;;7.07;6.32;;;4.10;99.90;;;;;;7387988;19;20364;-79
2021/11/10 18:42:16;;;;;;;7.40;6.00;;;4.00;99.90;;;;;;7385557;19;20823;-79
2021/11/10 18:44:43;;;;;;;6.78;5.97;;;4.00;99.90;;;;;;7387043;19;20313;-80
2021/11/10 18:47:11;;;;;;;5.88;5.35;;;4.00;99.90;;;;;;7389490;19;20408;-80
2021/11/10 18:49:39;;;;;;;7.53;5.40;;;3.90;99.90;;;;;;7386905;19;20671;-79
2021/11/10 18:52:05;;;;;;;6.72;5.65;;;3.70;99.90;;;;;;7384250;19;20337;-78
2021/11/10 18:54:31;;;;;;;7.23;5.53;;;3.80;99.90;;;;;;7387548;19;20839;-78
2021/11/10 18:56:57;;;;;;;5.70;5.13;;;3.60;99.90;;;;;;7385617;19;20337;-79
2021/11/10 18:59:27;;;;;;;5.70;5.10;;;3.70;99.90;;;;;;7390940;19;20856;-78
2021/11/10 19:02:01;;;;;;;5.20;4.65;;;3.70;99.90;;;;;;7387681;19;20396;-78
2021/11/10 19:04:33;;;;;;;6.03;5.32;;;3.60;99.90;;;;;;7390860;19;20387;-79
2021/11/10 19:17:27;;;;;;;5.82;5.22;;;3.40;99.90;;;;;;7386613;19;20337;-77
2021/11/10 19:20:10;;;;;;;6.20;5.60;;;3.40;99.90;;;;;;7388163;19;20336;-78
2021/11/10 19:22:36;;;;;;;6.82;5.80;;;3.50;99.90;;;;;;7388629;19;20343;-78
2021/11/10 19:25:04;;;;;;;5.27;4.77;;;3.40;99.90;;;;;;7388358;19;20349;-78
2021/11/10 19:27:30;;;;;;;6.93;5.67;;;3.30;99.90;;;;;;7390434;19;20348;-79
2021/11/10 19:29:56;;;;;;;6.10;5.27;;;3.20;99.90;;;;;;7387096;19;20336;-78
2021/11/10 19:32:21;;;;;;;6.80;5.75;;;3.20;99.90;;;;;;7390242;19;20679;-78
2021/11/10 19:34:47;;;;;;;7.25;5.82;;;3.20;99.90;;;;;;7387336;19;20348;-79
2021/11/10 19:37:13;;;;;;;5.93;5.40;;;3.10;99.90;;;;;;7388053;19;20344;-78
2021/11/10 19:39:38;;;;;;;5.80;5.00;;;3.10;99.90;;;;;;7387905;19;20323;-78
2021/11/10 19:42:04;;;;;;;6.38;5.15;;;3.10;99.90;;;;;;7385848;19;20352;-78
2021/11/10 19:44:31;;;;;;;5.70;5.20;;;3.00;99.90;;;;;;7390880;19;20431;-78
2021/11/10 19:46:56;;;;;;;5.38;4.88;;;3.00;99.90;;;;;;7388631;19;20365;-78
2021/11/10 19:49:22;;;;;;;5.83;4.63;;;3.00;99.90;;;;;;7389407;19;20313;-78
2021/11/10 19:51:49;;;;;;;6.35;4.88;;;3.00;99.90;;;;;;7389573;19;20312;-78
2021/11/10 19:54:16;;;;;;;5.63;5.03;;;2.90;99.90;;;;;;7386726;19;20349;-78
2021/11/10 19:56:42;;;;;;;5.60;5.07;;;2.90;99.90;;;;;;7385938;19;20332;-78
2021/11/10 19:59:08;;;;;;;5.45;4.95;;;2.80;99.90;;;;;;7390952;19;20301;-78
2021/11/10 20:01:35;;;;;;;5.27;4.63;;;2.80;99.90;;;;;;7386644;19;20981;-78
2021/11/10 20:04:09;;;;;;;5.47;4.72;;;2.70;99.90;;;;;;7388056;19;20329;-79
2021/11/10 20:06:36;;;;;;;5.40;4.90;;;2.90;99.90;;;;;;7388247;19;20355;-79
2021/11/10 20:09:03;;;;;;;5.70;5.18;;;2.70;99.90;;;;;;7390247;19;20368;-78
2021/11/10 20:11:30;;;;;;;5.37;4.87;;;2.70;99.90;;;;;;7395894;19;20863;-78
2021/11/10 20:14:03;;;;;;;5.63;5.13;;;2.70;99.90;;;;;;7391919;19;20321;-77
2021/11/10 20:16:31;;;;;;;5.70;5.10;;;2.60;99.90;;;;;;7371534;19;20341;-78
2021/11/10 20:18:56;;;;;;;6.07;5.43;;;2.70;99.90;;;;;;7369309;19;20356;-78
2021/11/10 20:21:22;;;;;;;5.38;4.88;;;2.50;99.90;;;;;;7396645;19;20320;-81
2021/11/10 20:23:49;;;;;;;6.03;5.43;;;2.50;99.90;;;;;;7398419;19;20311;-81
2021/11/10 20:26:15;;;;;;;7.82;7.10;;;2.40;99.90;;;;;;7401882;19;20324;-81
2021/11/10 20:28:42;;;;;;;6.78;5.57;;;2.30;99.90;;;;;;7393898;19;20324;-81
2021/11/10 20:31:12;;;;;;;5.65;5.13;;;2.10;99.90;;;;;;7394967;19;20856;-81
2021/11/10 20:33:38;;;;;;;6.22;5.05;;;2.10;99.90;;;;;;7394816;19;20336;-84
2021/11/10 20:36:07;;;;;;;7.13;5.67;;;2.00;99.90;;;;;;7396461;19;20716;-81
2021/11/10 20:38:33;;;;;;;7.80;5.40;;;2.20;99.90;;;;;;7396770;19;20357;-81
2021/11/10 20:41:02;;;;;;;5.53;5.03;;;2.20;99.90;;;;;;7374080;19;20324;-81
2021/11/10 20:43:30;;;;;;;6.00;4.90;;;2.00;99.90;;;;;;7394573;19;20316;-82
2021/11/10 20:46:10;;;;;;;6.03;5.45;;;2.00;99.90;;;;;;7394807;19;20646;-81
2021/11/10 20:48:50;;;;;;;6.80;6.00;;;2.10;99.90;;;;;;7371276;19;20317;-81
2021/11/10 20:51:19;;;;;;;6.53;5.93;;;2.00;99.90;;;;;;7369291;19;20336;-80
2021/11/10 20:53:48;;;;;;;8.47;7.57;;;1.90;99.90;;;;;;7392157;19;20316;-81
2021/11/10 20:56:14;;;;;;;11.70;9.43;;;2.00;99.90;;;;;;7390438;19;20437;-80
2021/11/10 20:58:40;;;;;;;8.10;7.28;;;2.00;99.90;;;;;;7386568;19;20337;-80
2021/11/10 21:01:09;;;;;;;9.50;8.47;;;1.90;99.90;;;;;;7386941;19;20297;-80
2021/11/10 21:03:38;;;;;;;7.07;6.30;;;1.90;99.90;;;;;;7321761;19;20887;-80
2021/11/10 21:06:03;;;;;;;7.78;6.50;;;1.90;99.90;;;;;;7383568;19;20336;-80
2021/11/10 21:08:29;;;;;;;7.13;6.43;;;1.90;99.90;;;;;;7386171;19;20352;-79
2021/11/10 21:11:07;;;;;;;7.35;6.60;;;1.70;99.90;;;;;;7343207;19;20326;-80
2021/11/10 21:13:36;;;;;;;18.27;15.77;;;1.80;99.90;;;;;;7386597;19;21006;-79
2021/11/10 21:16:01;;;;;;;14.32;10.20;;;1.60;99.90;;;;;;7387878;19;20432;-79
2021/11/10 21:18:30;;;;;;;10.83;9.30;;;1.70;99.90;;;;;;7388720;19;20304;-78
2021/11/10 21:20:58;;;;;;;8.00;7.15;;;1.70;99.90;;;;;;7386866;19;20345;-81
2021/11/10 21:23:23;;;;;;;7.00;6.27;;;1.70;99.90;;;;;;7388895;19;20689;-80
2021/11/10 21:25:50;;;;;;;7.80;6.47;;;1.70;99.90;;;;;;7388048;19;20416;-77
2021/11/10 21:28:15;;;;;;;7.70;6.90;;;1.70;99.90;;;;;;7384378;19;20360;-78
2021/11/10 21:30:42;;;;;;;9.25;7.38;;;1.80;99.90;;;;;;7380965;19;20736;-80
2021/11/10 21:33:12;;;;;;;8.32;7.53;;;1.70;99.90;;;;;;7386703;19;20328;-79
2021/11/10 21:35:45;;;;;;;8.02;7.05;;;1.80;99.90;;;;;;7384954;19;20337;-78
2021/11/10 21:38:11;;;;;;;8.23;7.43;;;1.70;99.90;;;;;;7385866;19;20316;-79
2021/11/10 21:40:37;;;;;;;9.95;7.65;;;1.80;99.90;;;;;;7383231;19;20345;-78
2021/11/10 21:43:05;;;;;;;8.97;7.20;;;1.70;99.90;;;;;;7362896;19;20336;-78
2021/11/10 21:45:34;;;;;;;7.78;6.70;;;1.60;99.90;;;;;;7382923;19;20316;-80
2021/11/10 21:48:00;;;;;;;7.68;6.88;;;1.70;99.90;;;;;;7383311;19;20473;-80